sensor_id;sensor_type;location;lat;lon;timestamp;P1;durP1;ratioP1;P2;durP2;ratioP2
76176;SDS011;64938;47.696;8.066;2023-08-20T00:00:25;9.37;;;6.90;;
76176;SDS011;64938;47.696;8.066;2023-08-20T00:02:53;8.57;;;7.00;;
76176;SDS011;64938;47.696;8.066;2023-08-20T00:05:30;8.23;;;7.00;;
76176;SDS011;64938;47.696;8.066;2023-08-20T00:07:56;9.00;;;6.93;;
76176;SDS011;64938;47.696;8.066;2023-08-20T00:10:22;10.63;;;6.73;;
76176;SDS011;64938;47.696;8.066;2023-08-20T00:12:49;7.90;;;6.87;;
76176;SDS011;64938;47.696;8.066;2023-08-20T00:15:15;8.90;;;6.47;;
76176;SDS011;64938;47.696;8.066;2023-08-20T00:17:46;8.67;;;7.17;;
76176;SDS011;64938;47.696;8.066;2023-08-20T00:20:13;7.47;;;6.77;;
76176;SDS011;64938;47.696;8.066;2023-08-20T00:22:39;7.40;;;6.73;;
76176;SDS011;64938;47.696;8.066;2023-08-20T00:25:07;9.20;;;7.00;;
76176;SDS011;64938;47.696;8.066;2023-08-20T00:27:33;7.60;;;6.93;;
76176;SDS011;64938;47.696;8.066;2023-08-20T00:29:59;8.13;;;7.33;;
76176;SDS011;64938;47.696;8.066;2023-08-20T00:32:24;10.10;;;7.30;;
76176;SDS011;64938;47.696;8.066;2023-08-20T00:34:52;8.63;;;7.10;;
76176;SDS011;64938;47.696;8.066;2023-08-20T00:37:17;7.60;;;6.33;;
76176;SDS011;64938;47.696;8.066;2023-08-20T00:39:43;6.80;;;6.17;;
76176;SDS011;64938;47.696;8.066;2023-08-20T00:42:08;8.93;;;7.97;;
76176;SDS011;64938;47.696;8.066;2023-08-20T00:44:34;8.27;;;7.30;;
76176;SDS011;64938;47.696;8.066;2023-08-20T00:47:04;7.70;;;7.00;;
76176;SDS011;64938;47.696;8.066;2023-08-20T00:49:31;6.83;;;6.23;;
76176;SDS011;64938;47.696;8.066;2023-08-20T00:51:58;7.40;;;6.70;;
76176;SDS011;64938;47.696;8.066;2023-08-20T00:54:24;7.60;;;6.80;;
76176;SDS011;64938;47.696;8.066;2023-08-20T00:56:49;7.93;;;6.77;;
76176;SDS011;64938;47.696;8.066;2023-08-20T00:59:18;7.53;;;6.80;;
76176;SDS011;64938;47.696;8.066;2023-08-20T01:01:43;7.00;;;6.30;;
76176;SDS011;64938;47.696;8.066;2023-08-20T01:04:09;6.93;;;6.10;;
76176;SDS011;64938;47.696;8.066;2023-08-20T01:09:31;6.70;;;6.10;;
76176;SDS011;64938;47.696;8.066;2023-08-20T01:12:14;7.37;;;6.57;;
76176;SDS011;64938;47.696;8.066;2023-08-20T01:14:41;8.10;;;7.30;;
76176;SDS011;64938;47.696;8.066;2023-08-20T01:17:07;8.10;;;6.17;;
76176;SDS011;64938;47.696;8.066;2023-08-20T01:19:33;7.10;;;6.40;;
76176;SDS011;64938;47.696;8.066;2023-08-20T01:30:06;8.33;;;6.37;;
76176;SDS011;64938;47.696;8.066;2023-08-20T01:32:33;7.57;;;6.80;;
76176;SDS011;64938;47.696;8.066;2023-08-20T01:35:00;7.37;;;6.67;;
76176;SDS011;64938;47.696;8.066;2023-08-20T01:37:25;7.07;;;5.90;;
76176;SDS011;64938;47.696;8.066;2023-08-20T01:39:56;7.10;;;6.47;;
76176;SDS011;64938;47.696;8.066;2023-08-20T01:42:21;8.20;;;7.40;;
76176;SDS011;64938;47.696;8.066;2023-08-20T01:44:49;6.37;;;5.87;;
76176;SDS011;64938;47.696;8.066;2023-08-20T01:47:15;6.90;;;6.30;;
76176;SDS011;64938;47.696;8.066;2023-08-20T01:49:42;6.50;;;5.90;;
76176;SDS011;64938;47.696;8.066;2023-08-20T01:52:10;8.43;;;6.50;;
76176;SDS011;64938;47.696;8.066;2023-08-20T01:54:36;7.50;;;6.47;;
76176;SDS011;64938;47.696;8.066;2023-08-20T01:57:01;7.20;;;6.37;;
76176;SDS011;64938;47.696;8.066;2023-08-20T01:59:28;7.43;;;6.43;;
76176;SDS011;64938;47.696;8.066;2023-08-20T02:01:54;6.83;;;6.23;;
76176;SDS011;64938;47.696;8.066;2023-08-20T02:04:19;7.97;;;6.70;;
76176;SDS011;64938;47.696;8.066;2023-08-20T02:06:45;7.77;;;7.00;;
76176;SDS011;64938;47.696;8.066;2023-08-20T02:09:10;7.87;;;6.70;;
76176;SDS011;64938;47.696;8.066;2023-08-20T02:11:36;7.60;;;7.00;;
76176;SDS011;64938;47.696;8.066;2023-08-20T02:14:02;7.40;;;6.80;;
76176;SDS011;64938;47.696;8.066;2023-08-20T02:16:28;9.57;;;6.97;;
76176;SDS011;64938;47.696;8.066;2023-08-20T02:18:53;7.90;;;7.00;;
76176;SDS011;64938;47.696;8.066;2023-08-20T02:21:19;9.43;;;6.70;;
76176;SDS011;64938;47.696;8.066;2023-08-20T02:23:47;9.47;;;6.90;;
76176;SDS011;64938;47.696;8.066;2023-08-20T02:26:14;7.43;;;6.77;;
76176;SDS011;64938;47.696;8.066;2023-08-20T02:28:40;8.17;;;6.53;;
76176;SDS011;64938;47.696;8.066;2023-08-20T02:31:05;8.13;;;7.33;;
76176;SDS011;64938;47.696;8.066;2023-08-20T02:33:31;8.67;;;7.40;;
76176;SDS011;64938;47.696;8.066;2023-08-20T02:36:04;7.23;;;6.63;;
76176;SDS011;64938;47.696;8.066;2023-08-20T02:38:30;8.00;;;7.40;;
76176;SDS011;64938;47.696;8.066;2023-08-20T02:40:56;7.67;;;6.97;;
76176;SDS011;64938;47.696;8.066;2023-08-20T02:43:22;7.27;;;6.60;;
76176;SDS011;64938;47.696;8.066;2023-08-20T02:45:47;7.50;;;6.80;;
76176;SDS011;64938;47.696;8.066;2023-08-20T02:48:13;9.60;;;6.60;;
76176;SDS011;64938;47.696;8.066;2023-08-20T02:50:41;8.93;;;7.57;;
76176;SDS011;64938;47.696;8.066;2023-08-20T02:53:07;8.10;;;7.43;;
76176;SDS011;64938;47.696;8.066;2023-08-20T02:55:32;8.40;;;6.63;;
76176;SDS011;64938;47.696;8.066;2023-08-20T02:57:58;7.67;;;6.97;;
76176;SDS011;64938;47.696;8.066;2023-08-20T03:00:24;8.40;;;6.60;;
76176;SDS011;64938;47.696;8.066;2023-08-20T03:02:50;8.03;;;7.27;;
76176;SDS011;64938;47.696;8.066;2023-08-20T03:05:15;7.93;;;6.90;;
76176;SDS011;64938;47.696;8.066;2023-08-20T03:07:41;7.60;;;6.47;;
76176;SDS011;64938;47.696;8.066;2023-08-20T03:10:09;7.63;;;6.93;;
76176;SDS011;64938;47.696;8.066;2023-08-20T03:12:35;7.30;;;6.70;;
76176;SDS011;64938;47.696;8.066;2023-08-20T03:15:00;7.13;;;6.53;;
76176;SDS011;64938;47.696;8.066;2023-08-20T03:17:31;9.57;;;6.73;;
76176;SDS011;64938;47.696;8.066;2023-08-20T03:19:57;8.90;;;7.27;;
76176;SDS011;64938;47.696;8.066;2023-08-20T03:22:26;7.60;;;7.00;;
76176;SDS011;64938;47.696;8.066;2023-08-20T03:24:52;8.70;;;7.33;;
76176;SDS011;64938;47.696;8.066;2023-08-20T03:27:19;7.20;;;6.60;;
76176;SDS011;64938;47.696;8.066;2023-08-20T03:29:45;7.90;;;7.20;;
76176;SDS011;64938;47.696;8.066;2023-08-20T03:32:11;8.13;;;7.40;;
76176;SDS011;64938;47.696;8.066;2023-08-20T03:34:36;8.03;;;7.23;;
76176;SDS011;64938;47.696;8.066;2023-08-20T03:37:03;7.47;;;6.80;;
76176;SDS011;64938;47.696;8.066;2023-08-20T03:39:29;7.90;;;7.20;;
76176;SDS011;64938;47.696;8.066;2023-08-20T03:41:56;7.60;;;7.00;;
76176;SDS011;64938;47.696;8.066;2023-08-20T03:44:22;10.53;;;7.43;;
76176;SDS011;64938;47.696;8.066;2023-08-20T03:46:48;7.30;;;6.30;;
76176;SDS011;64938;47.696;8.066;2023-08-20T03:49:13;7.63;;;6.40;;
76176;SDS011;64938;47.696;8.066;2023-08-20T03:51:39;7.10;;;6.50;;
76176;SDS011;64938;47.696;8.066;2023-08-20T03:54:06;8.20;;;7.33;;
76176;SDS011;64938;47.696;8.066;2023-08-20T03:56:31;7.27;;;6.70;;
76176;SDS011;64938;47.696;8.066;2023-08-20T03:58:57;8.50;;;7.47;;
76176;SDS011;64938;47.696;8.066;2023-08-20T04:01:22;7.33;;;6.73;;
76176;SDS011;64938;47.696;8.066;2023-08-20T04:03:48;7.33;;;6.70;;
76176;SDS011;64938;47.696;8.066;2023-08-20T04:06:17;8.87;;;7.50;;
76176;SDS011;64938;47.696;8.066;2023-08-20T04:08:42;7.73;;;7.13;;
76176;SDS011;64938;47.696;8.066;2023-08-20T04:11:12;8.37;;;7.57;;
76176;SDS011;64938;47.696;8.066;2023-08-20T04:13:38;11.60;;;7.30;;
76176;SDS011;64938;47.696;8.066;2023-08-20T04:16:12;8.00;;;7.20;;
76176;SDS011;64938;47.696;8.066;2023-08-20T04:18:38;8.23;;;7.17;;
76176;SDS011;64938;47.696;8.066;2023-08-20T04:21:05;7.87;;;7.13;;
76176;SDS011;64938;47.696;8.066;2023-08-20T04:23:32;7.70;;;7.00;;
76176;SDS011;64938;47.696;8.066;2023-08-20T04:25:57;8.43;;;7.17;;
76176;SDS011;64938;47.696;8.066;2023-08-20T04:28:23;7.60;;;6.97;;
76176;SDS011;64938;47.696;8.066;2023-08-20T04:30:54;7.93;;;7.20;;
76176;SDS011;64938;47.696;8.066;2023-08-20T04:33:23;7.80;;;7.10;;
76176;SDS011;64938;47.696;8.066;2023-08-20T04:35:49;7.53;;;6.87;;
76176;SDS011;64938;47.696;8.066;2023-08-20T04:38:18;8.20;;;7.50;;
76176;SDS011;64938;47.696;8.066;2023-08-20T04:40:46;7.60;;;6.87;;
76176;SDS011;64938;47.696;8.066;2023-08-20T04:43:12;7.63;;;6.93;;
76176;SDS011;64938;47.696;8.066;2023-08-20T04:45:38;8.13;;;7.37;;
76176;SDS011;64938;47.696;8.066;2023-08-20T04:48:04;7.93;;;7.20;;
76176;SDS011;64938;47.696;8.066;2023-08-20T04:50:29;7.77;;;7.07;;
76176;SDS011;64938;47.696;8.066;2023-08-20T04:53:00;8.20;;;7.20;;
76176;SDS011;64938;47.696;8.066;2023-08-20T04:55:28;8.17;;;7.33;;
76176;SDS011;64938;47.696;8.066;2023-08-20T04:57:56;8.77;;;7.50;;
76176;SDS011;64938;47.696;8.066;2023-08-20T05:00:22;7.60;;;6.90;;
76176;SDS011;64938;47.696;8.066;2023-08-20T05:02:47;7.20;;;6.60;;
76176;SDS011;64938;47.696;8.066;2023-08-20T05:05:13;7.80;;;7.10;;
76176;SDS011;64938;47.696;8.066;2023-08-20T05:07:42;8.93;;;7.43;;
76176;SDS011;64938;47.696;8.066;2023-08-20T05:10:09;9.33;;;6.50;;
76176;SDS011;64938;47.696;8.066;2023-08-20T05:12:36;7.97;;;7.20;;
76176;SDS011;64938;47.696;8.066;2023-08-20T05:15:02;9.30;;;6.53;;
76176;SDS011;64938;47.696;8.066;2023-08-20T05:17:27;7.77;;;7.07;;
76176;SDS011;64938;47.696;8.066;2023-08-20T05:19:53;7.07;;;6.47;;
76176;SDS011;64938;47.696;8.066;2023-08-20T05:22:20;6.90;;;6.40;;
76176;SDS011;64938;47.696;8.066;2023-08-20T05:24:51;7.33;;;6.63;;
76176;SDS011;64938;47.696;8.066;2023-08-20T05:27:19;9.23;;;6.80;;
76176;SDS011;64938;47.696;8.066;2023-08-20T05:29:44;7.10;;;6.50;;
76176;SDS011;64938;47.696;8.066;2023-08-20T05:32:13;7.83;;;7.10;;
76176;SDS011;64938;47.696;8.066;2023-08-20T05:34:43;7.07;;;6.47;;
76176;SDS011;64938;47.696;8.066;2023-08-20T05:37:08;6.80;;;6.20;;
76176;SDS011;64938;47.696;8.066;2023-08-20T05:39:41;7.47;;;6.87;;
76176;SDS011;64938;47.696;8.066;2023-08-20T05:42:07;7.57;;;6.87;;
76176;SDS011;64938;47.696;8.066;2023-08-20T05:44:33;8.47;;;6.70;;
76176;SDS011;64938;47.696;8.066;2023-08-20T05:47:01;7.53;;;7.03;;
76176;SDS011;64938;47.696;8.066;2023-08-20T05:49:27;7.50;;;6.80;;
76176;SDS011;64938;47.696;8.066;2023-08-20T05:51:56;9.27;;;7.00;;
76176;SDS011;64938;47.696;8.066;2023-08-20T05:54:21;8.87;;;7.10;;
76176;SDS011;64938;47.696;8.066;2023-08-20T05:56:47;6.70;;;6.10;;
76176;SDS011;64938;47.696;8.066;2023-08-20T05:59:12;7.70;;;6.90;;
76176;SDS011;64938;47.696;8.066;2023-08-20T06:01:38;7.43;;;6.80;;
76176;SDS011;64938;47.696;8.066;2023-08-20T06:04:03;7.00;;;6.40;;
76176;SDS011;64938;47.696;8.066;2023-08-20T06:06:29;6.57;;;5.95;;
76176;SDS011;64938;47.696;8.066;2023-08-20T06:08:55;6.85;;;6.00;;
76176;SDS011;64938;47.696;8.066;2023-08-20T06:11:22;6.40;;;5.78;;
76176;SDS011;64938;47.696;8.066;2023-08-20T06:13:48;6.63;;;6.03;;
76176;SDS011;64938;47.696;8.066;2023-08-20T06:16:13;6.47;;;5.88;;
76176;SDS011;64938;47.696;8.066;2023-08-20T06:18:39;6.30;;;5.53;;
76176;SDS011;64938;47.696;8.066;2023-08-20T06:21:09;7.75;;;5.75;;
76176;SDS011;64938;47.696;8.066;2023-08-20T06:23:41;5.82;;;5.30;;
76176;SDS011;64938;47.696;8.066;2023-08-20T06:26:07;6.45;;;5.40;;
76176;SDS011;64938;47.696;8.066;2023-08-20T06:28:32;5.40;;;4.90;;
76176;SDS011;64938;47.696;8.066;2023-08-20T06:30:58;8.00;;;5.53;;
76176;SDS011;64938;47.696;8.066;2023-08-20T06:33:32;9.00;;;5.13;;
76176;SDS011;64938;47.696;8.066;2023-08-20T06:36:03;5.35;;;4.95;;
76176;SDS011;64938;47.696;8.066;2023-08-20T06:38:29;6.15;;;5.70;;
76176;SDS011;64938;47.696;8.066;2023-08-20T06:40:59;5.85;;;5.25;;
76176;SDS011;64938;47.696;8.066;2023-08-20T06:43:25;5.78;;;5.30;;
76176;SDS011;64938;47.696;8.066;2023-08-20T06:45:54;6.22;;;5.00;;
76176;SDS011;64938;47.696;8.066;2023-08-20T06:48:19;6.03;;;5.43;;
76176;SDS011;64938;47.696;8.066;2023-08-20T06:50:47;5.40;;;4.78;;
76176;SDS011;64938;47.696;8.066;2023-08-20T06:53:14;5.68;;;5.25;;
76176;SDS011;64938;47.696;8.066;2023-08-20T06:55:40;6.97;;;5.60;;
76176;SDS011;64938;47.696;8.066;2023-08-20T06:58:09;8.02;;;5.80;;
76176;SDS011;64938;47.696;8.066;2023-08-20T07:00:35;5.50;;;5.00;;
76176;SDS011;64938;47.696;8.066;2023-08-20T07:03:00;6.22;;;5.70;;
76176;SDS011;64938;47.696;8.066;2023-08-20T07:05:32;7.50;;;5.15;;
76176;SDS011;64938;47.696;8.066;2023-08-20T07:07:57;7.95;;;5.47;;
76176;SDS011;64938;47.696;8.066;2023-08-20T07:10:26;5.38;;;5.03;;
76176;SDS011;64938;47.696;8.066;2023-08-20T07:12:57;6.85;;;5.28;;
76176;SDS011;64938;47.696;8.066;2023-08-20T07:15:25;6.75;;;5.47;;
76176;SDS011;64938;47.696;8.066;2023-08-20T07:17:51;6.22;;;5.63;;
76176;SDS011;64938;47.696;8.066;2023-08-20T07:20:17;6.85;;;6.10;;
76176;SDS011;64938;47.696;8.066;2023-08-20T07:22:43;6.10;;;5.70;;
76176;SDS011;64938;47.696;8.066;2023-08-20T07:25:18;6.22;;;5.70;;
76176;SDS011;64938;47.696;8.066;2023-08-20T07:28:46;6.50;;;5.90;;
76176;SDS011;64938;47.696;8.066;2023-08-20T07:32:07;6.85;;;6.25;;
76176;SDS011;64938;47.696;8.066;2023-08-20T07:34:54;7.80;;;6.10;;
76176;SDS011;64938;47.696;8.066;2023-08-20T07:37:54;6.38;;;5.85;;
76176;SDS011;64938;47.696;8.066;2023-08-20T07:40:20;6.47;;;5.55;;
76176;SDS011;64938;47.696;8.066;2023-08-20T07:42:48;5.95;;;5.35;;
76176;SDS011;64938;47.696;8.066;2023-08-20T07:45:16;6.00;;;5.53;;
76176;SDS011;64938;47.696;8.066;2023-08-20T07:47:48;5.95;;;5.45;;
76176;SDS011;64938;47.696;8.066;2023-08-20T07:50:14;7.30;;;5.72;;
76176;SDS011;64938;47.696;8.066;2023-08-20T07:52:39;6.50;;;5.90;;
76176;SDS011;64938;47.696;8.066;2023-08-20T07:55:08;6.05;;;5.55;;
76176;SDS011;64938;47.696;8.066;2023-08-20T07:57:37;6.80;;;6.18;;
76176;SDS011;64938;47.696;8.066;2023-08-20T08:00:03;9.18;;;5.97;;
76176;SDS011;64938;47.696;8.066;2023-08-20T08:02:29;6.40;;;5.80;;
76176;SDS011;64938;47.696;8.066;2023-08-20T08:04:58;6.18;;;5.68;;
76176;SDS011;64938;47.696;8.066;2023-08-20T08:07:26;6.22;;;5.65;;
76176;SDS011;64938;47.696;8.066;2023-08-20T08:09:52;6.68;;;6.18;;
76176;SDS011;64938;47.696;8.066;2023-08-20T08:12:20;6.20;;;5.60;;
76176;SDS011;64938;47.696;8.066;2023-08-20T08:14:47;9.00;;;5.75;;
76176;SDS011;64938;47.696;8.066;2023-08-20T08:17:13;5.95;;;5.40;;
76176;SDS011;64938;47.696;8.066;2023-08-20T08:19:41;6.30;;;5.43;;
76176;SDS011;64938;47.696;8.066;2023-08-20T08:22:17;6.70;;;5.97;;
76176;SDS011;64938;47.696;8.066;2023-08-20T08:24:42;6.22;;;5.50;;
76176;SDS011;64938;47.696;8.066;2023-08-20T08:27:10;5.20;;;4.80;;
76176;SDS011;64938;47.696;8.066;2023-08-20T08:29:39;6.05;;;5.50;;
76176;SDS011;64938;47.696;8.066;2023-08-20T08:32:05;6.35;;;5.75;;
76176;SDS011;64938;47.696;8.066;2023-08-20T08:34:30;5.90;;;5.30;;
76176;SDS011;64938;47.696;8.066;2023-08-20T08:36:56;6.72;;;5.97;;
76176;SDS011;64938;47.696;8.066;2023-08-20T08:39:24;5.95;;;5.45;;
76176;SDS011;64938;47.696;8.066;2023-08-20T08:41:50;5.60;;;5.20;;
76176;SDS011;64938;47.696;8.066;2023-08-20T08:44:16;7.35;;;5.78;;
76176;SDS011;64938;47.696;8.066;2023-08-20T08:46:43;7.50;;;5.68;;
76176;SDS011;64938;47.696;8.066;2023-08-20T08:49:09;6.30;;;5.90;;
76176;SDS011;64938;47.696;8.066;2023-08-20T08:51:39;6.53;;;5.30;;
76176;SDS011;64938;47.696;8.066;2023-08-20T08:54:07;8.65;;;5.32;;
76176;SDS011;64938;47.696;8.066;2023-08-20T08:56:39;7.15;;;6.28;;
76176;SDS011;64938;47.696;8.066;2023-08-20T09:00:00;6.45;;;5.95;;
76176;SDS011;64938;47.696;8.066;2023-08-20T09:03:38;6.03;;;5.63;;
76176;SDS011;64938;47.696;8.066;2023-08-20T09:06:48;6.82;;;5.72;;
76176;SDS011;64938;47.696;8.066;2023-08-20T09:09:22;6.68;;;6.10;;
76176;SDS011;64938;47.696;8.066;2023-08-20T09:11:48;5.70;;;5.30;;
76176;SDS011;64938;47.696;8.066;2023-08-20T09:14:24;5.95;;;5.43;;
76176;SDS011;64938;47.696;8.066;2023-08-20T09:17:02;6.70;;;5.60;;
76176;SDS011;64938;47.696;8.066;2023-08-20T09:23:10;9.30;;;5.88;;
76176;SDS011;64938;47.696;8.066;2023-08-20T09:26:05;6.80;;;6.25;;
76176;SDS011;64938;47.696;8.066;2023-08-20T09:40:31;7.25;;;5.80;;
76176;SDS011;64938;47.696;8.066;2023-08-20T09:43:00;5.55;;;5.15;;
76176;SDS011;64938;47.696;8.066;2023-08-20T09:45:28;6.13;;;5.72;;
76176;SDS011;64938;47.696;8.066;2023-08-20T09:47:56;6.75;;;6.20;;
76176;SDS011;64938;47.696;8.066;2023-08-20T09:50:23;6.55;;;5.80;;
76176;SDS011;64938;47.696;8.066;2023-08-20T09:52:55;6.57;;;5.65;;
76176;SDS011;64938;47.696;8.066;2023-08-20T09:55:28;10.52;;;5.78;;
76176;SDS011;64938;47.696;8.066;2023-08-20T09:58:03;6.50;;;6.10;;
76176;SDS011;64938;47.696;8.066;2023-08-20T10:00:35;6.30;;;5.80;;
76176;SDS011;64938;47.696;8.066;2023-08-20T10:03:00;8.98;;;7.13;;
76176;SDS011;64938;47.696;8.066;2023-08-20T10:05:26;7.10;;;6.22;;
76176;SDS011;64938;47.696;8.066;2023-08-20T10:07:55;7.03;;;6.32;;
76176;SDS011;64938;47.696;8.066;2023-08-20T10:10:21;6.80;;;6.18;;
76176;SDS011;64938;47.696;8.066;2023-08-20T10:12:46;7.00;;;6.50;;
76176;SDS011;64938;47.696;8.066;2023-08-20T10:15:13;6.75;;;6.25;;
76176;SDS011;64938;47.696;8.066;2023-08-20T10:17:42;7.18;;;5.97;;
76176;SDS011;64938;47.696;8.066;2023-08-20T10:20:10;7.13;;;6.47;;
76176;SDS011;64938;47.696;8.066;2023-08-20T10:22:47;10.32;;;6.20;;
76176;SDS011;64938;47.696;8.066;2023-08-20T10:25:24;7.38;;;6.35;;
76176;SDS011;64938;47.696;8.066;2023-08-20T10:27:51;8.80;;;7.03;;
76176;SDS011;64938;47.696;8.066;2023-08-20T10:30:20;9.45;;;6.90;;
76176;SDS011;64938;47.696;8.066;2023-08-20T10:35:17;8.02;;;6.60;;
76176;SDS011;64938;47.696;8.066;2023-08-20T10:38:00;6.93;;;6.28;;
76176;SDS011;64938;47.696;8.066;2023-08-20T10:43:34;7.30;;;6.63;;
76176;SDS011;64938;47.696;8.066;2023-08-20T10:46:14;11.23;;;7.10;;
76176;SDS011;64938;47.696;8.066;2023-08-20T10:48:43;6.57;;;5.97;;
76176;SDS011;64938;47.696;8.066;2023-08-20T10:51:15;7.75;;;7.00;;
76176;SDS011;64938;47.696;8.066;2023-08-20T10:56:42;8.23;;;6.85;;
76176;SDS011;64938;47.696;8.066;2023-08-20T10:59:16;7.10;;;6.50;;
76176;SDS011;64938;47.696;8.066;2023-08-20T11:01:50;7.32;;;6.72;;
76176;SDS011;64938;47.696;8.066;2023-08-20T11:04:18;7.90;;;6.65;;
76176;SDS011;64938;47.696;8.066;2023-08-20T11:06:54;7.72;;;6.93;;
76176;SDS011;64938;47.696;8.066;2023-08-20T11:09:23;7.03;;;6.43;;
76176;SDS011;64938;47.696;8.066;2023-08-20T11:11:51;6.80;;;6.20;;
76176;SDS011;64938;47.696;8.066;2023-08-20T11:14:18;7.07;;;6.15;;
76176;SDS011;64938;47.696;8.066;2023-08-20T11:16:44;7.78;;;7.05;;
76176;SDS011;64938;47.696;8.066;2023-08-20T11:19:10;7.60;;;6.55;;
76176;SDS011;64938;47.696;8.066;2023-08-20T11:21:41;7.03;;;6.40;;
76176;SDS011;64938;47.696;8.066;2023-08-20T11:24:11;6.57;;;5.93;;
76176;SDS011;64938;47.696;8.066;2023-08-20T11:26:40;7.05;;;6.38;;
76176;SDS011;64938;47.696;8.066;2023-08-20T11:29:07;6.47;;;5.88;;
76176;SDS011;64938;47.696;8.066;2023-08-20T11:31:45;6.20;;;5.70;;
76176;SDS011;64938;47.696;8.066;2023-08-20T11:34:11;8.95;;;6.35;;
76176;SDS011;64938;47.696;8.066;2023-08-20T11:36:40;6.13;;;5.70;;
76176;SDS011;64938;47.696;8.066;2023-08-20T11:39:06;6.88;;;5.82;;
76176;SDS011;64938;47.696;8.066;2023-08-20T11:41:35;6.75;;;6.15;;
76176;SDS011;64938;47.696;8.066;2023-08-20T11:44:08;7.53;;;6.10;;
76176;SDS011;64938;47.696;8.066;2023-08-20T11:46:41;7.35;;;6.15;;
76176;SDS011;64938;47.696;8.066;2023-08-20T11:49:14;10.35;;;6.03;;
76176;SDS011;64938;47.696;8.066;2023-08-20T11:51:48;6.97;;;5.68;;
76176;SDS011;64938;47.696;8.066;2023-08-20T11:54:18;7.60;;;6.50;;
76176;SDS011;64938;47.696;8.066;2023-08-20T11:56:47;7.28;;;6.47;;
76176;SDS011;64938;47.696;8.066;2023-08-20T11:59:14;6.45;;;5.95;;
76176;SDS011;64938;47.696;8.066;2023-08-20T12:01:49;6.97;;;6.38;;
76176;SDS011;64938;47.696;8.066;2023-08-20T12:04:17;8.60;;;6.20;;
76176;SDS011;64938;47.696;8.066;2023-08-20T12:07:00;9.13;;;6.50;;
76176;SDS011;64938;47.696;8.066;2023-08-20T12:09:47;8.20;;;6.03;;
76176;SDS011;64938;47.696;8.066;2023-08-20T12:12:15;6.90;;;6.00;;
76176;SDS011;64938;47.696;8.066;2023-08-20T12:14:43;7.57;;;6.22;;
76176;SDS011;64938;47.696;8.066;2023-08-20T12:17:12;7.03;;;6.43;;
76176;SDS011;64938;47.696;8.066;2023-08-20T12:19:41;7.85;;;6.00;;
76176;SDS011;64938;47.696;8.066;2023-08-20T12:22:32;6.50;;;5.88;;
76176;SDS011;64938;47.696;8.066;2023-08-20T12:24:57;6.55;;;6.05;;
76176;SDS011;64938;47.696;8.066;2023-08-20T12:27:23;8.27;;;6.15;;
76176;SDS011;64938;47.696;8.066;2023-08-20T12:29:51;6.50;;;6.03;;
76176;SDS011;64938;47.696;8.066;2023-08-20T12:32:17;7.65;;;5.93;;
76176;SDS011;64938;47.696;8.066;2023-08-20T12:34:45;7.63;;;6.05;;
76176;SDS011;64938;47.696;8.066;2023-08-20T12:37:14;7.05;;;6.18;;
76176;SDS011;64938;47.696;8.066;2023-08-20T12:39:42;6.15;;;5.55;;
76176;SDS011;64938;47.696;8.066;2023-08-20T12:42:07;8.63;;;5.70;;
76176;SDS011;64938;47.696;8.066;2023-08-20T12:44:33;7.22;;;6.13;;
76176;SDS011;64938;47.696;8.066;2023-08-20T12:46:59;6.82;;;6.13;;
76176;SDS011;64938;47.696;8.066;2023-08-20T12:49:27;7.32;;;5.88;;
76176;SDS011;64938;47.696;8.066;2023-08-20T12:51:52;6.85;;;5.70;;
76176;SDS011;64938;47.696;8.066;2023-08-20T12:54:21;8.27;;;5.85;;
76176;SDS011;64938;47.696;8.066;2023-08-20T12:56:50;10.75;;;5.75;;
76176;SDS011;64938;47.696;8.066;2023-08-20T12:59:15;7.78;;;6.07;;
76176;SDS011;64938;47.696;8.066;2023-08-20T13:01:41;6.65;;;5.43;;
76176;SDS011;64938;47.696;8.066;2023-08-20T13:04:07;6.90;;;6.20;;
76176;SDS011;64938;47.696;8.066;2023-08-20T13:06:36;6.22;;;5.57;;
76176;SDS011;64938;47.696;8.066;2023-08-20T13:09:05;6.75;;;6.05;;
76176;SDS011;64938;47.696;8.066;2023-08-20T13:11:39;9.35;;;5.68;;
76176;SDS011;64938;47.696;8.066;2023-08-20T13:14:08;7.57;;;6.20;;
76176;SDS011;64938;47.696;8.066;2023-08-20T13:16:43;7.13;;;5.90;;
76176;SDS011;64938;47.696;8.066;2023-08-20T13:19:08;8.13;;;5.63;;
76176;SDS011;64938;47.696;8.066;2023-08-20T13:21:35;6.05;;;5.45;;
76176;SDS011;64938;47.696;8.066;2023-08-20T13:24:07;6.80;;;6.10;;
76176;SDS011;64938;47.696;8.066;2023-08-20T13:26:34;8.07;;;6.93;;
76176;SDS011;64938;47.696;8.066;2023-08-20T13:28:59;6.22;;;5.10;;
76176;SDS011;64938;47.696;8.066;2023-08-20T13:31:25;5.90;;;5.32;;
76176;SDS011;64938;47.696;8.066;2023-08-20T13:33:52;6.00;;;5.50;;
76176;SDS011;64938;47.696;8.066;2023-08-20T13:36:17;6.40;;;5.72;;
76176;SDS011;64938;47.696;8.066;2023-08-20T13:38:43;8.40;;;5.78;;
76176;SDS011;64938;47.696;8.066;2023-08-20T13:41:13;5.80;;;5.18;;
76176;SDS011;64938;47.696;8.066;2023-08-20T13:43:39;7.10;;;5.47;;
76176;SDS011;64938;47.696;8.066;2023-08-20T13:46:12;10.18;;;6.25;;
76176;SDS011;64938;47.696;8.066;2023-08-20T13:48:41;6.05;;;5.55;;
76176;SDS011;64938;47.696;8.066;2023-08-20T13:51:06;6.53;;;6.03;;
76176;SDS011;64938;47.696;8.066;2023-08-20T13:53:38;6.40;;;5.82;;
76176;SDS011;64938;47.696;8.066;2023-08-20T13:56:04;6.80;;;5.10;;
76176;SDS011;64938;47.696;8.066;2023-08-20T13:58:30;8.00;;;6.30;;
76176;SDS011;64938;47.696;8.066;2023-08-20T14:00:55;6.65;;;6.13;;
76176;SDS011;64938;47.696;8.066;2023-08-20T14:03:23;7.53;;;6.63;;
76176;SDS011;64938;47.696;8.066;2023-08-20T14:05:48;6.80;;;6.30;;
76176;SDS011;64938;47.696;8.066;2023-08-20T14:08:17;6.72;;;6.20;;
76176;SDS011;64938;47.696;8.066;2023-08-20T14:10:43;8.50;;;6.57;;
76176;SDS011;64938;47.696;8.066;2023-08-20T14:13:11;7.95;;;6.85;;
76176;SDS011;64938;47.696;8.066;2023-08-20T14:15:37;7.47;;;6.65;;
76176;SDS011;64938;47.696;8.066;2023-08-20T14:18:07;7.07;;;6.40;;
76176;SDS011;64938;47.696;8.066;2023-08-20T14:20:33;6.75;;;6.22;;
76176;SDS011;64938;47.696;8.066;2023-08-20T14:22:58;9.23;;;6.47;;
76176;SDS011;64938;47.696;8.066;2023-08-20T14:25:25;8.60;;;7.20;;
76176;SDS011;64938;47.696;8.066;2023-08-20T14:27:53;7.95;;;6.60;;
76176;SDS011;64938;47.696;8.066;2023-08-20T14:30:19;9.50;;;7.00;;
76176;SDS011;64938;47.696;8.066;2023-08-20T14:32:46;7.28;;;6.60;;
76176;SDS011;64938;47.696;8.066;2023-08-20T14:35:15;7.07;;;6.38;;
76176;SDS011;64938;47.696;8.066;2023-08-20T14:37:43;6.75;;;6.15;;
76176;SDS011;64938;47.696;8.066;2023-08-20T14:40:09;7.45;;;6.72;;
76176;SDS011;64938;47.696;8.066;2023-08-20T14:42:35;11.93;;;7.28;;
76176;SDS011;64938;47.696;8.066;2023-08-20T14:45:01;6.85;;;6.20;;
76176;SDS011;64938;47.696;8.066;2023-08-20T14:47:30;7.47;;;5.90;;
76176;SDS011;64938;47.696;8.066;2023-08-20T14:49:59;6.55;;;5.95;;
76176;SDS011;64938;47.696;8.066;2023-08-20T14:52:25;7.82;;;5.40;;
76176;SDS011;64938;47.696;8.066;2023-08-20T14:54:51;6.30;;;5.75;;
76176;SDS011;64938;47.696;8.066;2023-08-20T14:57:17;6.68;;;5.60;;
76176;SDS011;64938;47.696;8.066;2023-08-20T14:59:48;7.10;;;5.40;;
76176;SDS011;64938;47.696;8.066;2023-08-20T15:02:15;7.20;;;5.35;;
76176;SDS011;64938;47.696;8.066;2023-08-20T15:04:40;7.18;;;6.07;;
76176;SDS011;64938;47.696;8.066;2023-08-20T15:07:06;5.85;;;5.35;;
76176;SDS011;64938;47.696;8.066;2023-08-20T15:09:32;8.40;;;5.88;;
76176;SDS011;64938;47.696;8.066;2023-08-20T15:11:57;5.43;;;4.93;;
76176;SDS011;64938;47.696;8.066;2023-08-20T15:14:28;6.68;;;5.68;;
76176;SDS011;64938;47.696;8.066;2023-08-20T15:16:53;6.75;;;5.82;;
76176;SDS011;64938;47.696;8.066;2023-08-20T15:19:19;9.77;;;5.78;;
76176;SDS011;64938;47.696;8.066;2023-08-20T15:21:47;6.70;;;6.05;;
76176;SDS011;64938;47.696;8.066;2023-08-20T15:24:17;6.20;;;5.13;;
76176;SDS011;64938;47.696;8.066;2023-08-20T15:26:43;6.20;;;5.57;;
76176;SDS011;64938;47.696;8.066;2023-08-20T15:29:08;7.18;;;6.20;;
76176;SDS011;64938;47.696;8.066;2023-08-20T15:31:36;6.60;;;6.10;;